createdAt,value
2022-12-24T00:01:37.344Z,63.42
2022-12-24T00:06:34.497Z,67.55
2022-12-24T00:11:31.402Z,71.80
2022-12-24T00:16:28.652Z,74.53
2022-12-24T00:21:27.892Z,68.05
2022-12-24T00:26:24.854Z,71.00
2022-12-24T00:31:21.834Z,68.63
2022-12-24T00:36:20.041Z,62.13
2022-12-24T00:41:25.317Z,67.85
2022-12-24T00:46:23.415Z,70.45
2022-12-24T00:51:21.407Z,57.47
2022-12-24T00:56:20.167Z,59.97
2022-12-24T01:01:17.865Z,56.05
2022-12-24T01:06:17.290Z,56.70
2022-12-24T01:11:14.196Z,58.42
2022-12-24T01:16:16.948Z,55.83
2022-12-24T01:21:14.846Z,50.78
2022-12-24T01:26:11.988Z,50.58
2022-12-24T01:31:14.234Z,49.60
2022-12-24T01:36:13.163Z,45.90
2022-12-24T01:41:34.463Z,46.63
2022-12-24T01:46:32.617Z,47.88
2022-12-24T01:51:35.775Z,42.08
2022-12-24T01:56:34.084Z,34.10
2022-12-24T02:01:31.149Z,30.70
2022-12-24T02:06:28.179Z,33.78
2022-12-24T02:11:25.826Z,31.90
2022-12-24T02:16:36.767Z,29.50
2022-12-24T02:21:55.069Z,21.00
2022-12-24T02:27:12.468Z,27.98
2022-12-24T02:32:15.104Z,23.77
2022-12-24T02:37:17.197Z,20.73
2022-12-24T02:42:18.791Z,19.42
2022-12-24T02:47:18.563Z,19.42
2022-12-24T02:52:32.849Z,19.10
2022-12-24T02:57:44.521Z,18.42
2022-12-24T03:02:57.831Z,16.83
2022-12-24T03:08:02.342Z,17.63
2022-12-24T03:13:04.738Z,16.75
2022-12-24T03:18:06.076Z,17.55
2022-12-24T03:23:03.878Z,15.65
2022-12-24T03:28:04.695Z,16.52
2022-12-24T03:33:02.313Z,16.45
2022-12-24T03:37:59.277Z,17.60
2022-12-24T03:42:56.212Z,15.88
2022-12-24T03:47:53.247Z,18.13
2022-12-24T03:52:50.880Z,17.77
2022-12-24T03:57:47.661Z,16.65
2022-12-24T04:02:44.582Z,17.55
2022-12-24T04:07:41.533Z,15.95
2022-12-24T04:12:39.357Z,16.77
2022-12-24T04:17:36.174Z,17.90
2022-12-24T04:22:32.949Z,18.40
2022-12-24T04:27:30.921Z,17.42
2022-12-24T04:32:29.016Z,18.33
2022-12-24T04:37:25.826Z,18.05
2022-12-24T04:42:22.730Z,18.98
2022-12-24T04:47:19.619Z,17.95
2022-12-24T04:52:17.076Z,18.90
2022-12-24T04:57:15.577Z,20.48
2022-12-24T05:02:12.669Z,22.50
2022-12-24T05:07:09.827Z,21.55
2022-12-24T05:12:07.873Z,21.27
2022-12-24T05:17:04.797Z,21.40
2022-12-24T05:22:19.565Z,20.10
2022-12-24T05:27:17.347Z,21.13
2022-12-24T05:32:14.277Z,22.30
2022-12-24T05:37:11.214Z,22.67
2022-12-24T05:42:08.299Z,20.90
2022-12-24T05:47:06.095Z,22.73
2022-12-24T05:52:03.131Z,21.85
2022-12-24T05:57:00.054Z,21.88
2022-12-24T06:01:57.066Z,20.48
2022-12-24T06:06:54.669Z,20.55
2022-12-24T06:11:51.624Z,19.95
2022-12-24T06:16:48.619Z,20.02
2022-12-24T06:21:45.546Z,23.42
2022-12-24T06:26:43.210Z,20.85
2022-12-24T06:31:40.165Z,19.17
2022-12-24T06:36:37.328Z,21.90
2022-12-24T06:41:34.314Z,22.30
2022-12-24T06:46:32.184Z,19.65
2022-12-24T06:51:29.296Z,20.80
2022-12-24T06:56:26.290Z,18.48
2022-12-24T07:01:23.818Z,17.55
2022-12-24T07:06:25.438Z,17.30
2022-12-24T07:11:23.681Z,19.15
2022-12-24T07:16:22.913Z,20.98
2022-12-24T07:21:19.920Z,22.92
2022-12-24T07:26:17.472Z,17.75
2022-12-24T07:31:15.576Z,19.02
2022-12-24T07:36:18.341Z,17.08
2022-12-24T07:41:18.295Z,18.08
2022-12-24T07:46:15.400Z,17.88
2022-12-24T07:51:12.506Z,18.02
2022-12-24T07:56:12.873Z,19.73
2022-12-24T08:01:11.347Z,19.48
2022-12-24T08:06:08.754Z,21.92
2022-12-24T08:11:07.667Z,18.35
2022-12-24T08:16:05.447Z,20.45
2022-12-24T08:21:03.920Z,21.58
2022-12-24T08:26:00.920Z,22.60
2022-12-24T08:30:59.586Z,20.83
2022-12-24T08:35:58.543Z,23.90
2022-12-24T08:40:57.210Z,25.38
2022-12-24T08:45:54.164Z,23.67
2022-12-24T08:50:51.173Z,25.83
2022-12-24T08:55:55.967Z,25.20
2022-12-24T09:00:56.476Z,24.33
2022-12-24T09:05:53.927Z,23.67
2022-12-24T09:10:52.589Z,20.38
2022-12-24T09:15:54.200Z,18.55
2022-12-24T09:20:56.887Z,19.17
2022-12-24T09:25:59.242Z,17.42
2022-12-24T09:31:22.932Z,16.73
2022-12-24T09:36:26.124Z,18.17
2022-12-24T09:41:44.173Z,15.98
2022-12-24T09:46:53.918Z,17.58
2022-12-24T09:52:02.792Z,17.23
2022-12-24T09:57:06.916Z,17.42
2022-12-24T10:02:12.546Z,15.43
2022-12-24T10:07:29.342Z,16.65
2022-12-24T10:12:35.359Z,14.63
2022-12-24T10:17:53.481Z,16.13
2022-12-24T10:22:58.403Z,15.68
2022-12-24T10:27:58.147Z,17.10
2022-12-24T10:33:00.225Z,16.30
2022-12-24T10:38:03.961Z,16.88
2022-12-24T10:43:02.524Z,13.70
2022-12-24T10:48:12.903Z,18.00
2022-12-24T10:53:19.102Z,14.85
2022-12-24T10:58:30.658Z,14.27
2022-12-24T11:03:38.499Z,17.10
2022-12-24T11:08:44.139Z,17.05
2022-12-24T11:13:58.234Z,15.02
2022-12-24T11:19:01.361Z,16.58
2022-12-24T11:24:06.803Z,14.80
2022-12-24T11:29:21.426Z,16.00
2022-12-24T11:34:35.637Z,18.17
2022-12-24T11:39:40.667Z,16.83
2022-12-24T11:44:48.978Z,14.77
2022-12-24T11:49:56.948Z,14.57
2022-12-24T11:55:17.412Z,14.13
2022-12-24T12:00:15.273Z,16.35
2022-12-24T12:05:20.100Z,15.98
2022-12-24T12:10:26.710Z,14.40
2022-12-24T12:15:35.654Z,14.55
2022-12-24T12:20:44.493Z,15.40
2022-12-24T12:30:54.158Z,16.10
2022-12-24T12:35:54.661Z,13.70
2022-12-24T12:41:24.884Z,15.95
2022-12-24T12:46:35.325Z,16.02
2022-12-24T12:51:46.195Z,14.88
2022-12-24T12:56:50.433Z,14.68
2022-12-24T13:02:01.790Z,13.98
2022-12-24T13:07:31.488Z,16.45
2022-12-24T13:12:59.573Z,17.65
2022-12-24T13:18:26.057Z,16.70
2022-12-24T13:23:36.952Z,19.25
2022-12-24T13:28:58.143Z,16.70
2022-12-24T13:34:38.644Z,15.55
2022-12-24T13:40:02.520Z,14.00
2022-12-24T13:50:25.089Z,15.60
2022-12-24T13:55:37.576Z,14.30
2022-12-24T14:00:46.366Z,12.88
2022-12-24T14:05:50.954Z,13.55
2022-12-24T14:11:03.669Z,14.57
2022-12-24T14:16:04.724Z,15.07
2022-12-24T14:21:05.951Z,16.40
2022-12-24T14:26:10.018Z,12.95
2022-12-24T14:31:16.119Z,14.45
2022-12-24T14:36:15.634Z,15.38
2022-12-24T14:41:42.857Z,13.80
2022-12-24T14:46:48.737Z,15.88
2022-12-24T14:51:55.102Z,13.77
2022-12-24T14:57:21.017Z,11.55
2022-12-24T15:02:50.002Z,8.80
2022-12-24T15:07:56.764Z,8.15
2022-12-24T15:12:59.091Z,9.63
2022-12-24T15:18:04.580Z,9.57
2022-12-24T15:23:01.783Z,9.38
2022-12-24T15:28:03.438Z,9.00
2022-12-24T15:33:02.658Z,8.02
2022-12-24T15:38:00.111Z,7.68
2022-12-24T15:42:57.831Z,10.00
2022-12-24T15:48:01.881Z,9.90
2022-12-24T15:53:20.969Z,9.23
2022-12-24T15:58:25.791Z,8.18
2022-12-24T16:03:26.953Z,7.35
2022-12-24T16:08:28.619Z,9.00
2022-12-24T16:13:32.893Z,8.93
2022-12-24T16:18:34.798Z,8.65
2022-12-24T16:23:43.462Z,9.15
2022-12-24T16:28:40.514Z,9.68
2022-12-24T16:33:38.498Z,11.05
2022-12-24T16:38:55.636Z,10.85
2022-12-24T16:43:59.742Z,10.02
2022-12-24T16:48:57.561Z,10.32
2022-12-24T16:53:54.829Z,9.23
2022-12-24T16:58:51.884Z,8.98
2022-12-24T17:03:49.522Z,9.30
2022-12-24T17:08:48.579Z,8.02
2022-12-24T17:13:45.606Z,8.02
2022-12-24T17:18:44.851Z,8.00
2022-12-24T17:23:46.823Z,10.52
2022-12-24T17:28:47.199Z,7.72
2022-12-24T17:33:48.136Z,7.57
2022-12-24T17:38:49.396Z,7.35
2022-12-24T17:43:54.369Z,7.60
2022-12-24T17:49:10.721Z,6.57
2022-12-24T17:54:12.828Z,6.68
2022-12-24T17:59:16.731Z,6.90
2022-12-24T18:04:15.538Z,6.43
2022-12-24T18:09:12.547Z,6.70
2022-12-24T18:14:13.351Z,6.47
2022-12-24T18:19:14.173Z,7.05
2022-12-24T18:24:13.451Z,6.47
2022-12-24T18:29:10.546Z,8.15
2022-12-24T18:34:12.101Z,7.22
2022-12-24T18:39:09.139Z,6.43
2022-12-24T18:44:06.139Z,10.10
2022-12-24T18:49:05.286Z,7.13
2022-12-24T18:54:04.668Z,8.23
2022-12-24T18:59:03.139Z,7.60
2022-12-24T19:04:00.803Z,7.38
2022-12-24T19:08:59.801Z,7.88
2022-12-24T19:13:58.737Z,6.93
2022-12-24T19:18:55.750Z,8.40
2022-12-24T19:23:55.897Z,8.82
2022-12-24T19:29:10.769Z,8.10
2022-12-24T19:34:07.722Z,8.57
2022-12-24T19:39:05.319Z,8.88
2022-12-24T19:44:05.190Z,9.20
2022-12-24T19:49:05.728Z,8.52
2022-12-24T19:54:03.894Z,8.93
2022-12-24T19:59:04.954Z,8.75
2022-12-24T20:04:02.761Z,8.90
2022-12-24T20:09:02.171Z,9.90
2022-12-24T20:14:00.614Z,8.73
2022-12-24T20:19:00.554Z,10.20
2022-12-24T20:24:00.915Z,9.90
2022-12-24T20:29:03.054Z,9.25
2022-12-24T20:34:01.680Z,9.88
2022-12-24T20:38:59.095Z,9.38
2022-12-24T20:43:58.407Z,10.32
2022-12-24T20:48:55.765Z,9.85
2022-12-24T20:53:53.559Z,10.95
2022-12-24T20:58:50.859Z,9.95
2022-12-24T21:03:53.799Z,10.85
2022-12-24T21:08:54.053Z,10.35
2022-12-24T21:13:51.320Z,10.85
2022-12-24T21:18:49.544Z,10.68
2022-12-24T21:23:46.398Z,12.00
2022-12-24T21:28:44.847Z,11.32
2022-12-24T21:33:42.290Z,11.63
2022-12-24T21:38:39.849Z,11.80
2022-12-24T21:43:37.687Z,11.20
2022-12-24T21:48:52.785Z,10.38
2022-12-24T21:54:08.582Z,12.47
2022-12-24T21:59:07.224Z,11.40
2022-12-24T22:04:04.447Z,11.23
2022-12-24T22:09:22.121Z,11.63
2022-12-24T22:14:19.267Z,11.70
2022-12-24T22:19:16.255Z,12.10
2022-12-24T22:24:14.039Z,12.10
2022-12-24T22:29:11.685Z,12.48
2022-12-24T22:34:14.216Z,11.60
2022-12-24T22:39:11.625Z,13.15
2022-12-24T22:44:10.673Z,12.18
2022-12-24T22:49:07.869Z,11.95
2022-12-24T22:54:07.651Z,11.98
2022-12-24T22:59:05.362Z,10.68
2022-12-24T23:04:05.439Z,12.43
2022-12-24T23:09:05.261Z,11.75
2022-12-24T23:14:25.580Z,11.45
2022-12-24T23:19:23.777Z,11.75
2022-12-24T23:24:20.769Z,10.32
2022-12-24T23:29:18.229Z,10.50
2022-12-24T23:34:15.521Z,11.43
2022-12-24T23:39:14.957Z,10.30
2022-12-24T23:44:11.954Z,11.10
2022-12-24T23:49:12.806Z,10.85
2022-12-24T23:54:13.866Z,9.38
2022-12-24T23:59:11.089Z,10.48
